KFTY/FTY METAR and TAF weather

Enter ICAO airport designator
Station Type Date Time Source
KFTY METAR 2018/12/19 02:53 UTC NOAA

KFTY 190253Z 00000KT 10SM CLR 06/03 A3010 RMK AO2 SLP194 T00610028 50006


Station Type Date Time Source
KFTY Decoded METAR 2018/12/19 02:53 UTC NOAA

ATLANTA FULTON COUNTY AIRPORT , GA, United States (KFTY) 33-47N 84-31W 263M
Dec 18, 2018 - 09:53 PM EST / 2018.12.19 0253 UTC
Wind: Calm:0
Visibility: 10 mile(s):0
Sky conditions: clear
Temperature: 43.0 F (6.1 C)
Dew Point: 37.0 F (2.8 C)
Relative Humidity: 79%
Pressure (altimeter): 30.1 in. Hg (1019 hPa)
Pressure tendency: 0.02 inches (0.6 hPa) higher than three hours ago
ob: KFTY 190253Z 00000KT 10SM CLR 06/03 A3010 RMK AO2 SLP194 T00610028 50006
cycle: 3

Station Type Date Time Source
KFTY TAF 2018/12/18 22:48 UTC NOAA

TAF
AMD KFTY 182146Z 1822/1918 29004KT P6SM BKN250
FM190200 VRB03KT P6SM BKN250
FM191400 10004KT P6SM OVC250


Example: see airport list